createdAt,value
2016-11-13T00:00:02.103Z,0
2016-11-13T00:00:42.803Z,0
2016-11-13T00:01:23.531Z,0
2016-11-13T00:02:04.180Z,0
2016-11-13T00:02:44.897Z,0
2016-11-13T00:03:25.580Z,0
2016-11-13T00:04:06.289Z,0
2016-11-13T00:04:47.013Z,0
2016-11-13T00:05:27.683Z,0
2016-11-13T00:06:08.394Z,0
2016-11-13T00:06:49.109Z,0
2016-11-13T00:07:29.827Z,0
2016-11-13T00:08:10.488Z,0
2016-11-13T00:08:51.197Z,0
2016-11-13T00:09:31.854Z,0
2016-11-13T00:10:12.555Z,0
2016-11-13T00:10:53.209Z,0
2016-11-13T00:11:33.921Z,0
2016-11-13T00:12:14.593Z,0
2016-11-13T00:12:55.292Z,0
2016-11-13T00:13:35.933Z,0
2016-11-13T00:14:16.629Z,0
2016-11-13T00:14:57.324Z,0
2016-11-13T00:15:37.990Z,0
2016-11-13T00:16:18.650Z,0
2016-11-13T00:16:59.322Z,0
2016-11-13T00:17:40.037Z,0
2016-11-13T00:18:20.717Z,0
2016-11-13T00:19:01.434Z,0
2016-11-13T00:19:42.104Z,0
2016-11-13T00:20:22.763Z,0
2016-11-13T00:21:03.416Z,0
2016-11-13T00:21:44.063Z,0
2016-11-13T00:22:24.737Z,0
2016-11-13T00:23:05.447Z,0
2016-11-13T00:23:46.102Z,0
2016-11-13T00:24:26.781Z,0
2016-11-13T00:25:07.421Z,0
2016-11-13T00:25:48.100Z,0
2016-11-13T00:26:28.797Z,0
2016-11-13T00:27:09.490Z,0
2016-11-13T00:27:50.157Z,0
2016-11-13T00:28:30.790Z,0
2016-11-13T00:29:11.442Z,0
2016-11-13T00:29:52.141Z,0
2016-11-13T00:30:32.819Z,0
2016-11-13T00:31:13.458Z,0
2016-11-13T00:31:54.107Z,0
2016-11-13T00:32:34.820Z,0
2016-11-13T00:33:15.457Z,0
2016-11-13T00:33:56.172Z,0
2016-11-13T00:34:36.821Z,0
2016-11-13T00:35:17.550Z,0
2016-11-13T00:35:58.220Z,0
2016-11-13T00:36:38.907Z,0
2016-11-13T00:37:19.613Z,0
2016-11-13T00:38:00.313Z,0
2016-11-13T00:38:40.998Z,0
2016-11-13T00:39:21.651Z,0
2016-11-13T00:40:02.369Z,0
2016-11-13T00:40:43.060Z,0
2016-11-13T00:41:23.736Z,0
2016-11-13T00:42:04.417Z,0
2016-11-13T00:42:45.115Z,0
2016-11-13T00:43:25.806Z,0
2016-11-13T00:44:06.511Z,0
2016-11-13T00:44:47.196Z,0
2016-11-13T00:45:27.836Z,0
2016-11-13T00:46:08.504Z,0
2016-11-13T00:46:49.218Z,0
2016-11-13T00:47:29.883Z,0
2016-11-13T00:48:10.574Z,0
2016-11-13T00:48:51.236Z,0
2016-11-13T00:49:31.908Z,0
2016-11-13T00:50:12.632Z,0
2016-11-13T00:50:53.354Z,0
2016-11-13T00:51:34.057Z,0
2016-11-13T00:52:14.731Z,0
2016-11-13T00:52:55.394Z,0
2016-11-13T00:53:36.071Z,0
2016-11-13T00:54:16.758Z,0
2016-11-13T00:54:57.439Z,0
2016-11-13T00:55:38.118Z,0
2016-11-13T00:56:18.811Z,0
2016-11-13T00:56:59.502Z,0
2016-11-13T00:57:40.190Z,0
2016-11-13T00:58:20.853Z,0
2016-11-13T00:59:01.571Z,0
2016-11-13T00:59:42.259Z,0
2016-11-13T01:00:22.932Z,0
2016-11-13T01:01:03.609Z,0
2016-11-13T01:01:44.292Z,0
2016-11-13T01:02:25.008Z,0
2016-11-13T01:03:05.703Z,0
2016-11-13T01:03:46.397Z,0
2016-11-13T01:04:27.123Z,0
2016-11-13T01:05:07.774Z,0
2016-11-13T01:05:48.472Z,0
2016-11-13T01:06:29.107Z,0
2016-11-13T01:07:09.804Z,0
2016-11-13T01:07:50.476Z,0
2016-11-13T01:08:31.154Z,0
2016-11-13T01:09:11.816Z,0
2016-11-13T01:09:52.510Z,0
2016-11-13T01:10:33.222Z,0
2016-11-13T01:11:13.880Z,0
2016-11-13T01:11:54.563Z,0
2016-11-13T01:12:35.237Z,0
2016-11-13T01:13:15.915Z,0
2016-11-13T01:13:56.584Z,0
2016-11-13T01:14:37.261Z,0
2016-11-13T01:15:17.922Z,0
2016-11-13T01:15:58.607Z,0
2016-11-13T01:16:39.281Z,0
2016-11-13T01:17:19.953Z,0
2016-11-13T01:18:00.635Z,0
2016-11-13T01:18:41.290Z,0
2016-11-13T01:19:21.965Z,0
2016-11-13T01:20:02.663Z,0
2016-11-13T01:20:43.299Z,0
2016-11-13T01:21:24.012Z,0
2016-11-13T01:22:04.683Z,0
2016-11-13T01:22:45.339Z,0
2016-11-13T01:23:25.979Z,0
2016-11-13T01:24:06.667Z,0
2016-11-13T01:24:47.405Z,0
2016-11-13T01:25:28.086Z,0
2016-11-13T01:26:08.759Z,0
2016-11-13T01:26:49.436Z,0
2016-11-13T01:27:30.087Z,0
2016-11-13T01:28:10.785Z,0
2016-11-13T01:28:51.416Z,0
2016-11-13T01:29:32.123Z,0
2016-11-13T01:30:12.778Z,0
2016-11-13T01:30:53.426Z,0
2016-11-13T01:31:34.052Z,0
2016-11-13T01:32:14.684Z,0
2016-11-13T01:32:55.373Z,0
2016-11-13T01:33:36.083Z,0
2016-11-13T01:34:16.776Z,0
2016-11-13T01:34:57.459Z,0
2016-11-13T01:35:38.165Z,0
2016-11-13T01:36:18.832Z,0
2016-11-13T01:36:59.529Z,0
2016-11-13T01:37:40.179Z,0
2016-11-13T01:38:20.845Z,0
2016-11-13T01:39:01.514Z,0
2016-11-13T01:39:42.243Z,0
2016-11-13T01:40:22.955Z,0
2016-11-13T01:41:03.654Z,0
2016-11-13T01:41:44.343Z,0
2016-11-13T01:42:25.041Z,0
2016-11-13T01:43:05.674Z,0
2016-11-13T01:43:46.394Z,0
2016-11-13T01:44:27.127Z,0
2016-11-13T01:45:07.786Z,0
2016-11-13T01:45:48.472Z,0
2016-11-13T01:46:29.195Z,0
2016-11-13T01:47:09.877Z,0
2016-11-13T01:47:50.546Z,0
2016-11-13T01:48:31.224Z,0
2016-11-13T01:49:11.891Z,0
2016-11-13T01:49:52.601Z,0
2016-11-13T01:50:33.230Z,0
2016-11-13T01:51:13.922Z,0
2016-11-13T01:51:54.640Z,0
2016-11-13T01:52:35.354Z,0
2016-11-13T01:53:15.996Z,0
2016-11-13T01:53:56.647Z,0
2016-11-13T01:54:37.312Z,0
2016-11-13T01:55:17.983Z,0
2016-11-13T01:55:58.630Z,0
2016-11-13T01:56:39.275Z,0
2016-11-13T01:57:19.964Z,0
2016-11-13T01:58:00.649Z,0
2016-11-13T01:58:41.353Z,0
2016-11-13T01:59:22.038Z,0
2016-11-13T02:00:02.702Z,0
2016-11-13T02:00:43.343Z,0
2016-11-13T02:01:24.052Z,0
2016-11-13T02:02:04.764Z,0
2016-11-13T02:02:45.462Z,0
2016-11-13T02:03:26.132Z,0
2016-11-13T02:04:06.800Z,0
2016-11-13T02:04:47.519Z,0
2016-11-13T02:05:28.200Z,0
2016-11-13T02:06:08.880Z,0
2016-11-13T02:06:49.601Z,0
2016-11-13T02:07:30.262Z,0
2016-11-13T02:08:10.947Z,0
2016-11-13T02:08:51.664Z,0
2016-11-13T02:09:32.362Z,0
2016-11-13T02:10:13.050Z,0
2016-11-13T02:10:53.751Z,0
2016-11-13T02:11:34.392Z,0
2016-11-13T02:12:15.074Z,0
2016-11-13T02:12:55.732Z,0
2016-11-13T02:13:36.409Z,0
2016-11-13T02:14:17.109Z,0
2016-11-13T02:14:57.800Z,0
2016-11-13T02:15:38.443Z,0
2016-11-13T02:16:19.161Z,0
2016-11-13T02:16:59.822Z,0
2016-11-13T02:17:40.481Z,0
2016-11-13T02:18:21.133Z,0
2016-11-13T02:19:01.788Z,0
2016-11-13T02:19:42.478Z,0
2016-11-13T02:20:23.132Z,0
2016-11-13T02:21:03.834Z,0
2016-11-13T02:21:44.532Z,0
2016-11-13T02:22:25.183Z,0
2016-11-13T02:23:05.823Z,0
2016-11-13T02:23:46.471Z,0
2016-11-13T02:24:27.151Z,0
2016-11-13T02:25:07.857Z,0
2016-11-13T02:25:48.551Z,0
2016-11-13T02:26:29.194Z,0
2016-11-13T02:27:09.872Z,0
2016-11-13T02:27:50.587Z,0
2016-11-13T02:28:31.297Z,0
2016-11-13T02:29:12.021Z,0
2016-11-13T02:29:52.671Z,0
2016-11-13T02:30:33.336Z,0
2016-11-13T02:31:14.009Z,0
2016-11-13T02:31:54.682Z,0
2016-11-13T02:32:35.324Z,0
2016-11-13T02:33:16.019Z,0
2016-11-13T02:33:56.742Z,0
2016-11-13T02:34:37.431Z,0
2016-11-13T02:35:18.108Z,0
2016-11-13T02:35:58.777Z,0
2016-11-13T02:36:39.482Z,0
2016-11-13T02:37:20.103Z,0
2016-11-13T02:38:00.751Z,0
2016-11-13T02:38:41.388Z,0
2016-11-13T02:39:22.077Z,0
2016-11-13T02:40:02.727Z,0
2016-11-13T02:40:43.444Z,0
2016-11-13T02:41:24.096Z,0
2016-11-13T02:42:04.767Z,0
2016-11-13T02:42:45.481Z,0
2016-11-13T02:43:26.174Z,0
2016-11-13T02:44:06.852Z,0
2016-11-13T02:44:47.515Z,0
2016-11-13T02:45:28.238Z,0
2016-11-13T02:46:08.907Z,0
2016-11-13T02:46:49.552Z,0
2016-11-13T02:47:30.235Z,0
2016-11-13T02:48:10.924Z,0
2016-11-13T02:48:51.605Z,0
2016-11-13T02:49:32.283Z,0
2016-11-13T02:50:12.921Z,0
2016-11-13T02:50:53.572Z,0
2016-11-13T02:51:34.246Z,0
2016-11-13T02:52:14.896Z,0
2016-11-13T02:52:55.623Z,0
2016-11-13T02:53:36.323Z,0
2016-11-13T02:54:17.034Z,0
2016-11-13T02:54:57.722Z,0
2016-11-13T02:55:38.382Z,0
2016-11-13T02:56:19.069Z,0
2016-11-13T02:56:59.734Z,0
2016-11-13T02:57:40.428Z,0
2016-11-13T02:58:21.065Z,0
2016-11-13T02:59:01.755Z,0
2016-11-13T02:59:42.379Z,0
2016-11-13T03:00:23.080Z,0
2016-11-13T03:01:03.774Z,0
2016-11-13T03:01:44.447Z,0
2016-11-13T03:02:25.146Z,0
2016-11-13T03:03:05.839Z,0
2016-11-13T03:03:47.232Z,0
2016-11-13T03:04:27.921Z,0
2016-11-13T03:05:08.598Z,0
2016-11-13T03:05:49.285Z,0
2016-11-13T03:06:29.983Z,0
2016-11-13T03:07:10.675Z,0
2016-11-13T03:07:51.386Z,0
2016-11-13T03:08:32.107Z,0
2016-11-13T03:09:12.820Z,0
2016-11-13T03:09:53.457Z,0
2016-11-13T03:10:34.118Z,0
2016-11-13T03:11:14.810Z,0
2016-11-13T03:11:55.467Z,0
2016-11-13T03:12:36.158Z,0
2016-11-13T03:13:16.872Z,0
2016-11-13T03:13:57.536Z,0
2016-11-13T03:14:38.243Z,0
2016-11-13T03:15:18.947Z,0
2016-11-13T03:15:59.645Z,0
2016-11-13T03:16:40.349Z,0
2016-11-13T03:17:21.014Z,0
2016-11-13T03:18:01.712Z,0
2016-11-13T03:18:42.399Z,0
2016-11-13T03:19:23.060Z,0
2016-11-13T03:20:03.723Z,0
2016-11-13T03:20:45.205Z,0
2016-11-13T03:21:25.080Z,0
2016-11-13T03:22:05.782Z,0
2016-11-13T03:22:46.419Z,0
2016-11-13T03:23:27.063Z,0
2016-11-13T03:24:07.783Z,0
2016-11-13T03:24:48.471Z,0
2016-11-13T03:25:29.174Z,0
2016-11-13T03:26:09.834Z,0
2016-11-13T03:26:50.523Z,0
2016-11-13T03:27:31.171Z,0
2016-11-13T03:28:11.844Z,0
2016-11-13T03:28:52.546Z,0
2016-11-13T03:29:33.254Z,0
2016-11-13T03:30:13.942Z,0
2016-11-13T03:30:54.610Z,0
2016-11-13T03:31:35.281Z,0
2016-11-13T03:32:15.931Z,0
2016-11-13T03:32:56.617Z,0
2016-11-13T03:33:37.248Z,0
2016-11-13T03:34:17.935Z,0
2016-11-13T03:34:58.623Z,0
2016-11-13T03:35:39.291Z,0
2016-11-13T03:36:19.952Z,0
2016-11-13T03:37:00.625Z,0
2016-11-13T03:37:41.311Z,0
2016-11-13T03:38:21.926Z,0
2016-11-13T03:39:02.613Z,0
2016-11-13T03:39:43.304Z,0
2016-11-13T03:40:23.986Z,0
2016-11-13T03:41:04.674Z,0
2016-11-13T03:41:45.332Z,0
2016-11-13T03:42:26.052Z,0
2016-11-13T03:43:06.740Z,0
2016-11-13T03:43:47.389Z,0
2016-11-13T03:44:28.076Z,0
2016-11-13T03:45:08.768Z,0
2016-11-13T03:45:49.427Z,0
2016-11-13T03:46:30.133Z,0
2016-11-13T03:47:10.771Z,0
2016-11-13T03:47:51.453Z,0
2016-11-13T03:48:32.163Z,0
2016-11-13T03:49:12.834Z,0
2016-11-13T03:49:53.543Z,0
2016-11-13T03:50:34.240Z,0
2016-11-13T03:51:14.890Z,0
2016-11-13T03:51:55.557Z,0
2016-11-13T03:52:36.232Z,0
2016-11-13T03:53:16.898Z,0
2016-11-13T03:53:57.602Z,0
2016-11-13T03:54:38.271Z,0
2016-11-13T03:55:18.944Z,0
2016-11-13T03:55:59.614Z,0
2016-11-13T03:56:40.294Z,0
2016-11-13T03:57:20.948Z,0
2016-11-13T03:58:01.639Z,0
2016-11-13T03:58:42.321Z,0
2016-11-13T03:59:23.029Z,0
2016-11-13T04:00:03.733Z,0
2016-11-13T04:00:44.427Z,0
2016-11-13T04:01:25.126Z,0
2016-11-13T04:02:05.853Z,0
2016-11-13T04:02:46.509Z,0
2016-11-13T04:03:27.197Z,0
2016-11-13T04:04:07.880Z,0
2016-11-13T04:04:48.542Z,0
2016-11-13T04:05:29.253Z,0
2016-11-13T04:06:09.915Z,0
2016-11-13T04:06:50.563Z,0
2016-11-13T04:07:31.213Z,0
2016-11-13T04:08:11.917Z,0
2016-11-13T04:08:52.598Z,0
2016-11-13T04:09:33.268Z,0
2016-11-13T04:10:13.967Z,0
2016-11-13T04:10:54.676Z,0
2016-11-13T04:11:35.320Z,0
2016-11-13T04:12:16.045Z,0
2016-11-13T04:12:56.724Z,0
2016-11-13T04:13:37.427Z,0
2016-11-13T04:14:18.102Z,0
2016-11-13T04:14:58.830Z,0
2016-11-13T04:15:39.526Z,0
2016-11-13T04:16:20.237Z,0
2016-11-13T04:17:00.909Z,0
2016-11-13T04:17:41.587Z,0
2016-11-13T04:18:22.272Z,0
2016-11-13T04:19:02.966Z,0
2016-11-13T04:19:43.644Z,0
2016-11-13T04:20:24.289Z,0
2016-11-13T04:21:04.986Z,0
2016-11-13T04:21:45.679Z,0
2016-11-13T04:22:26.355Z,0
2016-11-13T04:23:07.017Z,0
2016-11-13T04:23:47.762Z,0
2016-11-13T04:24:28.445Z,0
2016-11-13T04:25:09.133Z,0
2016-11-13T04:25:49.783Z,0
2016-11-13T04:26:30.484Z,0
2016-11-13T04:27:11.159Z,0
2016-11-13T04:27:51.870Z,0
2016-11-13T04:28:32.550Z,0
2016-11-13T04:29:13.206Z,0
2016-11-13T04:29:53.866Z,0
2016-11-13T04:30:34.559Z,0
2016-11-13T04:31:15.205Z,0
2016-11-13T04:31:55.916Z,0
2016-11-13T04:32:36.594Z,0
2016-11-13T04:33:17.236Z,0
2016-11-13T04:33:57.919Z,0
2016-11-13T04:34:38.601Z,0
2016-11-13T04:35:19.270Z,0
2016-11-13T04:35:59.934Z,0
2016-11-13T04:36:40.649Z,0
2016-11-13T04:37:21.312Z,0
2016-11-13T04:38:01.990Z,0
2016-11-13T04:38:42.707Z,0
2016-11-13T04:39:23.406Z,0
2016-11-13T04:40:04.051Z,0
2016-11-13T04:40:44.742Z,0
2016-11-13T04:41:25.433Z,0
2016-11-13T04:42:06.082Z,0
2016-11-13T04:42:46.743Z,0
2016-11-13T04:43:27.464Z,0
2016-11-13T04:44:08.160Z,0
2016-11-13T04:44:48.829Z,0
2016-11-13T04:45:29.507Z,0
2016-11-13T04:46:10.177Z,0
2016-11-13T04:46:50.851Z,0
2016-11-13T04:47:31.516Z,0
2016-11-13T04:48:12.203Z,0
2016-11-13T04:48:52.868Z,0
2016-11-13T04:49:33.629Z,0
2016-11-13T04:50:14.251Z,0
2016-11-13T04:50:54.931Z,0
2016-11-13T04:51:35.589Z,0
2016-11-13T04:52:16.299Z,0
2016-11-13T04:52:56.991Z,0
2016-11-13T04:53:37.674Z,0
2016-11-13T04:54:18.379Z,0
2016-11-13T04:54:59.050Z,0
2016-11-13T04:55:39.737Z,0
2016-11-13T04:56:20.475Z,0
2016-11-13T04:57:01.161Z,0
2016-11-13T04:57:41.830Z,0
2016-11-13T04:58:22.475Z,0
2016-11-13T04:59:03.147Z,0
2016-11-13T04:59:43.857Z,0
2016-11-13T05:00:24.518Z,0
2016-11-13T05:01:05.162Z,0
2016-11-13T05:01:45.820Z,0
2016-11-13T05:02:26.479Z,0
2016-11-13T05:03:07.197Z,0
2016-11-13T05:03:47.878Z,0
2016-11-13T05:04:28.520Z,0
2016-11-13T05:05:09.173Z,0
2016-11-13T05:05:49.829Z,0
2016-11-13T05:06:30.506Z,0
2016-11-13T05:07:11.193Z,0
2016-11-13T05:07:51.877Z,0
2016-11-13T05:08:32.596Z,0
2016-11-13T05:09:13.266Z,0
2016-11-13T05:09:53.941Z,0
2016-11-13T05:10:34.591Z,0
2016-11-13T05:11:15.311Z,0
2016-11-13T05:11:56.007Z,0
2016-11-13T05:12:36.716Z,0
2016-11-13T05:13:17.373Z,0
2016-11-13T05:13:58.108Z,0
2016-11-13T05:14:38.766Z,0
2016-11-13T05:15:19.480Z,0
2016-11-13T05:16:00.144Z,0
2016-11-13T05:16:40.816Z,0
2016-11-13T05:17:21.499Z,0
2016-11-13T05:18:02.169Z,0
2016-11-13T05:18:42.836Z,0
2016-11-13T05:19:23.536Z,0
2016-11-13T05:20:04.243Z,0
2016-11-13T05:20:44.916Z,0
2016-11-13T05:21:25.563Z,0
2016-11-13T05:22:06.241Z,0
2016-11-13T05:22:46.902Z,0
2016-11-13T05:23:27.602Z,0
2016-11-13T05:24:08.246Z,0
2016-11-13T05:24:48.964Z,0
2016-11-13T05:25:29.689Z,0
2016-11-13T05:26:10.346Z,0
2016-11-13T05:26:50.993Z,0
2016-11-13T05:27:31.676Z,0
2016-11-13T05:28:12.342Z,0
2016-11-13T05:28:53.003Z,0
2016-11-13T05:29:33.684Z,0
2016-11-13T05:30:14.370Z,0
2016-11-13T05:30:55.043Z,0
2016-11-13T05:31:35.712Z,0
2016-11-13T05:32:16.432Z,0
2016-11-13T05:32:57.077Z,0
2016-11-13T05:33:37.748Z,0
2016-11-13T05:34:18.378Z,0
2016-11-13T05:34:59.033Z,0
2016-11-13T05:35:39.688Z,0
2016-11-13T05:36:20.388Z,0
2016-11-13T05:37:01.068Z,0
2016-11-13T05:37:41.820Z,0
2016-11-13T05:38:22.510Z,0
2016-11-13T05:39:03.171Z,0
2016-11-13T05:39:43.824Z,0
2016-11-13T05:40:24.467Z,0
2016-11-13T05:41:05.179Z,0
2016-11-13T05:41:45.872Z,0
2016-11-13T05:42:26.581Z,0
2016-11-13T05:43:07.274Z,0
2016-11-13T05:43:47.955Z,0
2016-11-13T05:44:28.644Z,0
2016-11-13T05:45:09.263Z,0
2016-11-13T05:45:49.929Z,0
2016-11-13T05:46:30.618Z,0
2016-11-13T05:47:11.256Z,0
2016-11-13T05:47:51.908Z,0
2016-11-13T05:48:32.556Z,0
2016-11-13T05:49:13.258Z,0
2016-11-13T05:49:53.932Z,0
2016-11-13T05:50:34.598Z,0
2016-11-13T05:51:15.290Z,0
2016-11-13T05:51:55.959Z,0
2016-11-13T05:52:36.632Z,0
2016-11-13T05:53:17.301Z,0
2016-11-13T05:53:57.970Z,0
2016-11-13T05:54:38.643Z,0
2016-11-13T05:55:19.354Z,0
2016-11-13T05:56:00.026Z,0
2016-11-13T05:56:40.694Z,0
2016-11-13T05:57:21.410Z,0
2016-11-13T05:58:02.102Z,0
2016-11-13T05:58:42.754Z,0
2016-11-13T05:59:23.423Z,0
2016-11-13T06:00:04.118Z,0
2016-11-13T06:00:44.780Z,0
2016-11-13T06:01:25.408Z,0
2016-11-13T06:02:06.064Z,0
2016-11-13T06:02:46.766Z,0
2016-11-13T06:03:27.428Z,0
2016-11-13T06:04:08.100Z,0
2016-11-13T06:04:48.773Z,0
2016-11-13T06:05:29.440Z,0
2016-11-13T06:06:10.131Z,0
2016-11-13T06:06:50.803Z,0
2016-11-13T06:07:31.448Z,0
2016-11-13T06:08:12.137Z,0
2016-11-13T06:08:52.853Z,0
2016-11-13T06:09:33.528Z,0
2016-11-13T06:10:14.211Z,0
2016-11-13T06:10:54.867Z,0
2016-11-13T06:11:35.501Z,0
2016-11-13T06:12:16.131Z,0
2016-11-13T06:12:56.805Z,0
2016-11-13T06:13:37.456Z,0
2016-11-13T06:14:18.113Z,0
2016-11-13T06:14:58.793Z,0
2016-11-13T06:15:39.493Z,0
2016-11-13T06:16:20.153Z,0
2016-11-13T06:17:00.847Z,0
2016-11-13T06:17:41.514Z,0
2016-11-13T06:18:22.218Z,0
2016-11-13T06:19:02.856Z,0
2016-11-13T06:19:43.546Z,0
2016-11-13T06:20:24.248Z,0
2016-11-13T06:21:04.900Z,0
2016-11-13T06:21:45.595Z,0
2016-11-13T06:22:26.259Z,0
2016-11-13T06:23:06.919Z,0
2016-11-13T06:23:47.579Z,0
2016-11-13T06:24:28.256Z,0
2016-11-13T06:25:08.999Z,0
2016-11-13T06:25:49.649Z,0
2016-11-13T06:26:30.307Z,0
2016-11-13T06:27:10.969Z,0
2016-11-13T06:27:51.671Z,0
2016-11-13T06:28:32.334Z,0
2016-11-13T06:29:13.023Z,0
2016-11-13T06:29:53.706Z,0
2016-11-13T06:30:34.395Z,0
2016-11-13T06:31:15.101Z,0
2016-11-13T06:31:55.814Z,0
2016-11-13T06:32:36.486Z,0
2016-11-13T06:33:17.171Z,0
2016-11-13T06:33:57.806Z,0
2016-11-13T06:34:38.489Z,0
2016-11-13T06:35:19.192Z,0
2016-11-13T06:35:59.866Z,0
2016-11-13T06:36:40.508Z,0
2016-11-13T06:37:21.176Z,0
2016-11-13T06:38:01.845Z,0
2016-11-13T06:38:42.507Z,0
2016-11-13T06:39:23.197Z,0
2016-11-13T06:40:03.830Z,0
2016-11-13T06:40:44.529Z,0
2016-11-13T06:41:25.227Z,0
2016-11-13T06:42:05.928Z,0
2016-11-13T06:42:46.636Z,0
2016-11-13T06:43:27.274Z,0
2016-11-13T06:44:07.976Z,0
2016-11-13T06:44:48.579Z,0
2016-11-13T06:45:29.310Z,0
2016-11-13T06:46:10.852Z,0
2016-11-13T06:46:51.555Z,0
2016-11-13T06:47:32.245Z,0
2016-11-13T06:48:12.947Z,0
2016-11-13T06:48:53.655Z,0
2016-11-13T06:49:34.342Z,0
2016-11-13T06:50:15.001Z,0
2016-11-13T06:50:55.663Z,0
2016-11-13T06:51:36.325Z,0
2016-11-13T06:52:17.039Z,0
2016-11-13T06:52:57.704Z,0
2016-11-13T06:53:38.354Z,0
2016-11-13T06:54:19.030Z,0
2016-11-13T06:54:59.677Z,0
2016-11-13T06:55:40.323Z,4
2016-11-13T06:56:20.989Z,4
2016-11-13T06:57:01.691Z,4
2016-11-13T06:57:42.391Z,4
2016-11-13T06:58:23.039Z,0
2016-11-13T06:59:03.673Z,0
2016-11-13T06:59:44.397Z,0
2016-11-13T07:00:25.052Z,0
2016-11-13T07:01:05.745Z,0
2016-11-13T07:01:46.406Z,0
2016-11-13T07:02:27.058Z,0
2016-11-13T07:03:07.781Z,4
2016-11-13T07:03:48.464Z,4
2016-11-13T07:04:29.123Z,4
2016-11-13T07:05:09.804Z,4
2016-11-13T07:05:50.499Z,4
2016-11-13T07:06:31.165Z,4
2016-11-13T07:07:11.800Z,4
2016-11-13T07:07:52.479Z,4
2016-11-13T07:08:33.117Z,4
2016-11-13T07:09:13.748Z,4
2016-11-13T07:09:54.437Z,4
2016-11-13T07:10:35.102Z,4
2016-11-13T07:11:15.809Z,4
2016-11-13T07:11:56.546Z,4
2016-11-13T07:12:37.258Z,4
2016-11-13T07:13:17.927Z,4
2016-11-13T07:13:58.666Z,4
2016-11-13T07:14:39.338Z,4
2016-11-13T07:15:20.016Z,4
2016-11-13T07:16:00.687Z,4
2016-11-13T07:16:41.350Z,4
2016-11-13T07:17:22.036Z,4
2016-11-13T07:18:02.708Z,4
2016-11-13T07:18:43.380Z,4
2016-11-13T07:19:24.063Z,4
2016-11-13T07:20:04.715Z,4
2016-11-13T07:20:45.387Z,4
2016-11-13T07:21:26.075Z,4
2016-11-13T07:22:06.730Z,0
2016-11-13T07:22:47.390Z,0
2016-11-13T07:23:28.095Z,0
2016-11-13T07:24:08.772Z,4
2016-11-13T07:24:49.447Z,4
2016-11-13T07:25:30.124Z,4
2016-11-13T07:26:10.807Z,4
2016-11-13T07:26:51.473Z,4
2016-11-13T07:27:32.148Z,4
2016-11-13T07:28:12.845Z,4
2016-11-13T07:28:53.536Z,4
2016-11-13T07:29:34.205Z,4
2016-11-13T07:30:14.889Z,4
2016-11-13T07:30:55.578Z,4
2016-11-13T07:31:36.257Z,4
2016-11-13T07:32:16.919Z,4
2016-11-13T07:32:57.640Z,4
2016-11-13T07:33:38.328Z,4
2016-11-13T07:34:18.989Z,4
2016-11-13T07:34:59.724Z,4
2016-11-13T07:35:40.416Z,4
2016-11-13T07:36:21.076Z,4
2016-11-13T07:37:01.745Z,4
2016-11-13T07:37:42.443Z,4
2016-11-13T07:38:23.096Z,4
2016-11-13T07:39:03.782Z,4
2016-11-13T07:39:44.472Z,4
2016-11-13T07:40:25.122Z,4
2016-11-13T07:41:05.819Z,8
2016-11-13T07:41:46.495Z,8
2016-11-13T07:42:27.219Z,8
2016-11-13T07:43:07.857Z,4
2016-11-13T07:43:48.539Z,4
2016-11-13T07:44:29.214Z,4
2016-11-13T07:45:09.891Z,4
2016-11-13T07:45:50.544Z,4
2016-11-13T07:46:31.276Z,4
2016-11-13T07:47:11.963Z,4
2016-11-13T07:47:52.634Z,4
2016-11-13T07:48:33.330Z,8
2016-11-13T07:49:14.044Z,8
2016-11-13T07:49:54.692Z,8
2016-11-13T07:50:35.379Z,4
2016-11-13T07:51:16.067Z,4
2016-11-13T07:51:56.726Z,4
2016-11-13T07:52:37.410Z,8
2016-11-13T07:53:18.041Z,8
2016-11-13T07:53:58.714Z,8
2016-11-13T07:54:39.409Z,8
2016-11-13T07:55:20.102Z,8
2016-11-13T07:56:00.803Z,4
2016-11-13T07:56:41.516Z,4
2016-11-13T07:57:22.181Z,4
2016-11-13T07:58:02.850Z,8
2016-11-13T07:58:43.549Z,8
2016-11-13T07:59:24.296Z,8
2016-11-13T08:00:04.970Z,8
2016-11-13T08:00:45.636Z,8
2016-11-13T08:01:26.306Z,8
2016-11-13T08:02:07.024Z,8
2016-11-13T08:02:47.683Z,4
2016-11-13T08:03:28.399Z,8
2016-11-13T08:04:09.071Z,4
2016-11-13T08:04:49.754Z,8
2016-11-13T08:05:30.436Z,8
2016-11-13T08:06:11.070Z,8
2016-11-13T08:06:51.813Z,8
2016-11-13T08:07:32.490Z,8
2016-11-13T08:08:13.165Z,8
2016-11-13T08:08:53.835Z,8
2016-11-13T08:09:34.510Z,8
2016-11-13T08:10:15.215Z,8
2016-11-13T08:10:55.888Z,12
2016-11-13T08:11:36.593Z,12
2016-11-13T08:12:17.243Z,8
2016-11-13T08:12:57.908Z,8
2016-11-13T08:13:38.619Z,8
2016-11-13T08:14:19.312Z,12
2016-11-13T08:14:59.985Z,12
2016-11-13T08:15:40.662Z,8
2016-11-13T08:16:21.384Z,12
2016-11-13T08:17:02.095Z,12
2016-11-13T08:17:42.765Z,12
2016-11-13T08:18:23.448Z,16
2016-11-13T08:19:04.113Z,12
2016-11-13T08:19:44.807Z,16
2016-11-13T08:20:25.459Z,16
2016-11-13T08:21:06.139Z,16
2016-11-13T08:21:46.858Z,16
2016-11-13T08:22:27.526Z,20
2016-11-13T08:23:08.231Z,20
2016-11-13T08:23:48.908Z,24
2016-11-13T08:24:29.570Z,24
2016-11-13T08:25:10.248Z,20
2016-11-13T08:25:50.900Z,24
2016-11-13T08:26:31.600Z,24
2016-11-13T08:27:12.296Z,24
2016-11-13T08:27:52.963Z,28
2016-11-13T08:28:33.651Z,28
2016-11-13T08:29:14.353Z,28
2016-11-13T08:29:55.031Z,28
2016-11-13T08:30:35.725Z,32
2016-11-13T08:31:16.395Z,28
2016-11-13T08:31:57.924Z,32
2016-11-13T08:32:38.626Z,28
2016-11-13T08:33:19.388Z,32
2016-11-13T08:34:00.069Z,32
2016-11-13T08:34:40.735Z,32
2016-11-13T08:35:21.427Z,32
2016-11-13T08:36:02.091Z,36
2016-11-13T08:36:42.768Z,44
2016-11-13T08:37:23.458Z,40
2016-11-13T08:38:04.154Z,36
2016-11-13T08:38:44.830Z,36
2016-11-13T08:39:25.537Z,40
2016-11-13T08:40:06.212Z,36
2016-11-13T08:40:46.908Z,32
2016-11-13T08:41:27.549Z,36
2016-11-13T08:42:08.229Z,28
2016-11-13T08:42:48.887Z,28
2016-11-13T08:43:29.523Z,28
2016-11-13T08:44:10.245Z,28
2016-11-13T08:44:52.392Z,32
2016-11-13T08:45:32.565Z,32
2016-11-13T08:46:13.209Z,32
2016-11-13T08:46:53.906Z,32
2016-11-13T08:47:34.582Z,32
2016-11-13T08:48:15.300Z,36
2016-11-13T08:48:55.953Z,32
2016-11-13T08:49:36.652Z,32
2016-11-13T08:50:17.308Z,36
2016-11-13T08:50:57.947Z,36
2016-11-13T08:51:38.641Z,32
2016-11-13T08:52:19.293Z,32
2016-11-13T08:52:59.967Z,32
2016-11-13T08:53:40.690Z,36
2016-11-13T08:54:21.407Z,36
2016-11-13T08:55:02.069Z,36
2016-11-13T08:55:42.776Z,36
2016-11-13T08:56:23.468Z,36
2016-11-13T08:57:04.129Z,36
2016-11-13T08:57:44.834Z,40
2016-11-13T08:58:25.568Z,36
2016-11-13T08:59:06.243Z,36
2016-11-13T08:59:46.912Z,40
2016-11-13T09:00:27.576Z,40
2016-11-13T09:01:08.256Z,36
2016-11-13T09:01:48.958Z,40
2016-11-13T09:02:29.621Z,40
2016-11-13T09:03:10.286Z,40
2016-11-13T09:03:50.944Z,40
2016-11-13T09:04:31.674Z,40
2016-11-13T09:05:12.397Z,40
2016-11-13T09:05:53.056Z,40
2016-11-13T09:06:33.740Z,40
2016-11-13T09:07:14.425Z,40
2016-11-13T09:07:55.101Z,44
2016-11-13T09:08:35.754Z,44
2016-11-13T09:09:16.443Z,44
2016-11-13T09:09:57.132Z,48
2016-11-13T09:10:37.833Z,44
2016-11-13T09:11:18.496Z,44
2016-11-13T09:11:59.160Z,44
2016-11-13T09:12:39.825Z,44
2016-11-13T09:13:20.513Z,44
2016-11-13T09:14:01.184Z,44
2016-11-13T09:14:41.876Z,44
2016-11-13T09:15:22.552Z,44
2016-11-13T09:16:03.249Z,44
2016-11-13T09:16:43.977Z,48
2016-11-13T09:17:24.662Z,44
2016-11-13T09:18:05.322Z,44
2016-11-13T09:18:45.983Z,44
2016-11-13T09:19:26.682Z,44
2016-11-13T09:20:07.364Z,44
2016-11-13T09:20:48.025Z,44
2016-11-13T09:21:28.730Z,44
2016-11-13T09:22:09.408Z,44
2016-11-13T09:22:50.061Z,44
2016-11-13T09:23:30.756Z,40
2016-11-13T09:24:11.456Z,40
2016-11-13T09:24:52.149Z,40
2016-11-13T09:25:32.796Z,36
2016-11-13T09:26:13.448Z,40
2016-11-13T09:26:54.128Z,36
2016-11-13T09:27:34.834Z,40
2016-11-13T09:28:15.490Z,40
2016-11-13T09:28:56.170Z,40
2016-11-13T09:29:36.828Z,40
2016-11-13T09:30:17.487Z,40
2016-11-13T09:30:58.184Z,36
2016-11-13T09:31:38.859Z,40
2016-11-13T09:32:19.548Z,40
2016-11-13T09:33:00.217Z,40
2016-11-13T09:33:40.897Z,40
2016-11-13T09:34:21.573Z,40
2016-11-13T09:35:02.278Z,44
2016-11-13T09:35:42.934Z,44
2016-11-13T09:36:23.658Z,44
2016-11-13T09:37:04.327Z,44
2016-11-13T09:37:44.997Z,40
2016-11-13T09:38:25.659Z,40
2016-11-13T09:39:06.342Z,40
2016-11-13T09:39:47.012Z,40
2016-11-13T09:40:27.717Z,40
2016-11-13T09:41:08.377Z,40
2016-11-13T09:41:49.045Z,40
2016-11-13T09:42:29.749Z,40
2016-11-13T09:43:10.445Z,40
2016-11-13T09:43:51.125Z,40
2016-11-13T09:44:31.761Z,36
2016-11-13T09:45:12.454Z,40
2016-11-13T09:45:53.131Z,36
2016-11-13T09:46:33.840Z,36
2016-11-13T09:47:14.507Z,36
2016-11-13T09:47:55.186Z,36
2016-11-13T09:48:35.858Z,32
2016-11-13T09:49:16.539Z,32
2016-11-13T09:49:57.232Z,32
2016-11-13T09:50:37.902Z,32
2016-11-13T09:51:18.581Z,28
2016-11-13T09:51:59.252Z,28
2016-11-13T09:52:39.917Z,32
2016-11-13T09:53:20.619Z,28
2016-11-13T09:54:01.274Z,28
2016-11-13T09:54:41.971Z,24
2016-11-13T09:55:22.648Z,28
2016-11-13T09:56:03.351Z,28
2016-11-13T09:56:44.082Z,28
2016-11-13T09:57:24.772Z,28